Time;durP1;ratioP1;P1;durP2;ratioP2;P2;SDS_P1;SDS_P2;PMS_P1;PMS_P2;Temp;Humidity;BMP_temperature;BMP_pressure;BME280_temperature;BME280_humidity;BME280_pressure;Samples;Min_cycle;Max_cycle;Signal;HPM_P1;HPM_P2
2022/10/10 00:00:06;;;;;;;;;;;15.50;99.90;15.70;99596.00;;;;344868;28;83412;-87
2022/10/10 00:00:18;;;;;;;;;;;15.50;99.90;15.80;99594.00;;;;344366;28;90166;-87
2022/10/10 00:00:30;;;;;;;;;;;15.50;99.90;15.90;99594.00;;;;344998;28;83261;-87
2022/10/10 00:00:42;;;;;;;;;;;15.50;99.90;15.90;99589.00;;;;344267;28;91616;-87
2022/10/10 00:00:53;;;;;;;;;;;15.50;99.90;15.80;99599.00;;;;346161;28;83510;-86
2022/10/10 00:01:05;;;;;;;;;;;15.50;99.90;15.70;99588.00;;;;345693;28;91416;-87
2022/10/10 00:01:17;;;;;;;;;;;15.50;99.90;15.60;99593.00;;;;346230;28;82571;-86
2022/10/10 00:01:31;;;;;;;;;;;15.50;99.90;15.60;99591.00;;;;346963;28;92334;-87
2022/10/10 00:01:42;;;;;;;;;;;15.50;99.90;15.60;99596.00;;;;346130;28;83482;-86
2022/10/10 00:01:54;;;;;;;;;;;15.50;99.90;15.70;99600.00;;;;347223;28;91352;-87
2022/10/10 00:02:06;;;;;;;;;;;15.50;99.90;15.70;99594.00;;;;344626;28;83461;-87
2022/10/10 00:02:18;;;;;;;;;;;15.40;99.90;15.70;99597.00;;;;345583;28;92396;-87
2022/10/10 00:02:29;;;;;;;;;;;15.50;99.90;15.80;99593.00;;;;346419;28;82543;-88
2022/10/10 00:02:41;;;;;;;;;;;15.50;99.90;15.80;99592.00;;;;347250;27;89339;-87
2022/10/10 00:02:53;;;;;;;;;;;15.40;99.90;15.80;99598.00;;;;347613;28;83348;-87
2022/10/10 00:03:05;;;;;;;;;;;15.50;99.90;15.80;99586.00;;;;348498;27;91504;-87
2022/10/10 00:03:17;;;;;;;;;;;15.50;99.90;15.90;99591.00;;;;347601;28;83459;-86
2022/10/10 00:03:29;;;;;;;;;;;15.50;99.90;15.90;99599.00;;;;347050;28;92203;-87
2022/10/10 00:03:40;;;;;;;;;;;15.50;99.90;15.80;99590.00;;;;349076;27;83396;-87
2022/10/10 00:03:52;;;;;;;;;;;15.50;99.90;15.80;99585.00;;;;344308;28;91244;-87
2022/10/10 00:04:04;;;;;;;;;;;15.50;99.90;15.80;99594.00;;;;346474;28;82989;-87
2022/10/10 00:04:16;;;;;;;;;;;15.50;99.90;15.80;99593.00;;;;346163;28;88133;-87
2022/10/10 00:04:28;;;;;;;;;;;15.40;99.90;15.90;99586.00;;;;345124;28;82487;-87
2022/10/10 00:04:39;;;;;;;;;;;15.50;99.90;15.90;99591.00;;;;345696;28;90256;-87
2022/10/10 00:04:54;;;;;;;;;;;15.40;99.90;15.90;99595.00;;;;348989;27;82578;-87
2022/10/10 00:05:06;;;;;;;;;;;15.50;99.90;16.00;99600.00;;;;344387;28;91475;-87
2022/10/10 00:05:17;;;;;;;;;;;15.50;99.90;15.90;99595.00;;;;346157;28;83464;-86
2022/10/10 00:05:29;;;;;;;;;;;15.50;99.90;15.90;99592.00;;;;345483;28;92267;-87
2022/10/10 00:05:41;;;;;;;;;;;15.50;99.90;15.80;99593.00;;;;347457;28;83436;-87
2022/10/10 00:05:53;;;;;;;;;;;15.50;99.90;15.80;99594.00;;;;344581;28;87537;-87
2022/10/10 00:06:05;;;;;;;;;;;15.50;99.90;15.70;99594.00;;;;347568;27;83440;-87
2022/10/10 00:06:17;;;;;;;;;;;15.50;99.90;15.70;99594.00;;;;343020;28;90326;-87
2022/10/10 00:06:28;;;;;;;;;;;15.50;99.90;15.60;99599.00;;;;347475;28;83424;-86
2022/10/10 00:06:44;;;;;;;;;;;15.40;99.90;15.60;99592.00;;;;347076;28;87980;-86
2022/10/10 00:06:56;;;;;;;;;;;15.50;99.90;15.60;99585.00;;;;344675;28;83505;-87
2022/10/10 00:07:07;;;;;;;;;;;15.50;99.90;15.70;99596.00;;;;345682;28;88977;-87
2022/10/10 00:07:19;;;;;;;;;;;15.50;99.90;15.60;99600.00;;;;346128;28;83523;-87
2022/10/10 00:07:31;;;;;;;;;;;15.50;99.90;15.60;99588.00;;;;344174;28;92216;-87
2022/10/10 00:07:44;;;;;;;;;;;15.50;99.90;15.70;99593.00;;;;344740;28;82534;-87
2022/10/10 00:07:56;;;;;;;;;;;15.50;99.90;15.70;99587.00;;;;344173;28;91031;-87
2022/10/10 00:08:07;;;;;;;;;;;15.40;99.90;15.60;99590.00;;;;344618;28;82570;-87
2022/10/10 00:08:19;;;;;;;;;;;15.50;99.90;15.70;99591.00;;;;345613;28;91496;-86
2022/10/10 00:08:31;;;;;;;;;;;15.50;99.90;15.70;99587.00;;;;344661;28;83410;-87
2022/10/10 00:08:43;;;;;;;;;;;15.40;99.90;15.70;99595.00;;;;344411;28;91556;-86
2022/10/10 00:08:54;;;;;;;;;;;15.50;99.90;15.70;99589.00;;;;348747;27;83527;-87
2022/10/10 00:09:06;;;;;;;;;;;15.40;99.90;15.70;99590.00;;;;344272;28;91179;-87
2022/10/10 00:09:18;;;;;;;;;;;15.40;99.90;15.70;99591.00;;;;345998;28;83434;-86
2022/10/10 00:09:29;;;;;;;;;;;15.40;99.90;15.60;99589.00;;;;344150;28;91266;-87
2022/10/10 00:09:41;;;;;;;;;;;15.40;99.90;15.60;99583.00;;;;347553;28;83475;-87
2022/10/10 00:09:53;;;;;;;;;;;15.40;99.90;15.60;99585.00;;;;348415;27;91533;-86
2022/10/10 00:10:05;;;;;;;;;;;15.40;99.90;15.60;99598.00;;;;347703;28;83453;-87
2022/10/10 00:10:16;;;;;;;;;;;15.40;99.90;15.70;99589.00;;;;345629;28;92068;-87
2022/10/10 00:10:28;;;;;;;;;;;15.40;99.90;15.60;99599.00;;;;346481;28;82576;-86
2022/10/10 00:10:40;;;;;;;;;;;15.40;99.90;15.60;99586.00;;;;345951;28;89609;-87
2022/10/10 00:10:52;;;;;;;;;;;15.40;99.90;15.70;99584.00;;;;347845;28;83413;-87
2022/10/10 00:11:04;;;;;;;;;;;15.40;99.90;15.60;99583.00;;;;344461;28;88709;-87
2022/10/10 00:11:17;;;;;;;;;;;15.40;99.90;15.60;99585.00;;;;346477;28;83450;-87
2022/10/10 00:11:29;;;;;;;;;;;15.40;99.90;15.50;99593.00;;;;347184;28;90030;-87
2022/10/10 00:11:40;;;;;;;;;;;15.40;99.90;15.60;99586.00;;;;344963;28;83249;-85
2022/10/10 00:11:52;;;;;;;;;;;15.40;99.90;15.70;99585.00;;;;344231;28;92000;-87
2022/10/10 00:12:04;;;;;;;;;;;15.30;99.90;15.70;99588.00;;;;344775;28;82465;-86
2022/10/10 00:12:16;;;;;;;;;;;15.40;99.90;15.70;99583.00;;;;345759;28;87976;-87
2022/10/10 00:12:27;;;;;;;;;;;15.30;99.90;15.60;99592.00;;;;347572;28;82514;-87
2022/10/10 00:12:39;;;;;;;;;;;15.40;99.90;15.60;99591.00;;;;347091;28;90496;-86
2022/10/10 00:12:51;;;;;;;;;;;15.40;99.90;15.60;99591.00;;;;345998;28;83475;-87
2022/10/10 00:13:03;;;;;;;;;;;15.40;99.90;15.70;99593.00;;;;345553;28;90963;-87
2022/10/10 00:13:15;;;;;;;;;;;15.40;99.90;15.80;99596.00;;;;346097;28;83402;-87
2022/10/10 00:13:27;;;;;;;;;;;15.40;99.90;15.70;99587.00;;;;346771;28;91585;-87
2022/10/10 00:13:39;;;;;;;;;;;15.40;99.90;15.70;99590.00;;;;346008;28;83455;-86
2022/10/10 00:13:51;;;;;;;;;;;15.40;99.90;15.70;99590.00;;;;345673;28;90906;-87
2022/10/10 00:14:03;;;;;;;;;;;15.40;99.90;15.70;99594.00;;;;347471;28;82587;-86
2022/10/10 00:14:14;;;;;;;;;;;15.40;99.90;15.70;99588.00;;;;344211;28;91885;-87
2022/10/10 00:14:26;;;;;;;;;;;15.40;99.90;15.70;99585.00;;;;344746;28;82545;-87
2022/10/10 00:14:43;;;;;;;;;;;15.40;99.90;15.60;99585.00;;;;345726;28;90896;-87
2022/10/10 00:14:54;;;;;;;;;;;15.40;99.90;15.60;99589.00;;;;344885;28;82335;-86
2022/10/10 00:15:07;;;;;;;;;;;15.40;99.90;15.50;99591.00;;;;344320;28;91647;-87
2022/10/10 00:15:18;;;;;;;;;;;15.40;99.90;15.60;99582.00;;;;344505;28;82340;-87
2022/10/10 00:15:30;;;;;;;;;;;15.30;99.90;15.70;99593.00;;;;345539;28;92478;-87
2022/10/10 00:15:42;;;;;;;;;;;15.40;99.90;15.60;99596.00;;;;347615;28;82608;-87
2022/10/10 00:15:59;;;;;;;;;;;15.40;99.90;15.60;99588.00;;;;345790;28;89956;-86
2022/10/10 00:16:11;;;;;;;;;;;15.40;99.90;15.60;99595.00;;;;344721;28;83374;-86
2022/10/10 00:16:23;;;;;;;;;;;15.40;99.90;15.70;99594.00;;;;344271;28;91958;-86
2022/10/10 00:16:35;;;;;;;;;;;15.40;99.90;15.80;99597.00;;;;344734;28;83400;-86
2022/10/10 00:16:46;;;;;;;;;;;15.40;99.90;15.90;99593.00;;;;344189;28;91504;-87
2022/10/10 00:16:58;;;;;;;;;;;15.40;99.90;15.80;99590.00;;;;344943;28;83487;-86
2022/10/10 00:17:10;;;;;;;;;;;15.40;99.90;15.70;99592.00;;;;345699;28;91370;-86
2022/10/10 00:17:21;;;;;;;;;;;15.40;99.90;15.70;99593.00;;;;344386;28;83460;-86
2022/10/10 00:17:33;;;;;;;;;;;15.40;99.90;15.70;99600.00;;;;347041;28;91520;-86
2022/10/10 00:17:45;;;;;;;;;;;15.40;99.90;15.70;99592.00;;;;347520;28;83400;-86
2022/10/10 00:17:56;;;;;;;;;;;15.40;99.90;15.80;99595.00;;;;347034;28;90365;-87
2022/10/10 00:18:08;;;;;;;;;;;15.40;99.90;15.70;99595.00;;;;346067;28;83513;-87
2022/10/10 00:18:20;;;;;;;;;;;15.30;99.90;15.70;99597.00;;;;347093;28;91752;-86
2022/10/10 00:18:32;;;;;;;;;;;15.40;99.90;15.80;99590.00;;;;346498;28;82683;-86
2022/10/10 00:18:43;;;;;;;;;;;15.40;99.90;15.80;99589.00;;;;346095;28;91539;-87
2022/10/10 00:18:55;;;;;;;;;;;15.40;99.90;15.80;99593.00;;;;345061;28;82558;-87
2022/10/10 00:19:07;;;;;;;;;;;15.40;99.90;15.80;99600.00;;;;343311;28;91212;-86
2022/10/10 00:19:19;;;;;;;;;;;15.40;99.90;15.70;99601.00;;;;346194;28;83519;-87
2022/10/10 00:19:31;;;;;;;;;;;15.40;99.90;15.60;99600.00;;;;345635;28;92482;-87
2022/10/10 00:19:43;;;;;;;;;;;15.40;99.90;15.60;99597.00;;;;346439;28;82564;-87
2022/10/10 00:19:54;;;;;;;;;;;15.40;99.90;15.60;99591.00;;;;346078;28;90331;-87
2022/10/10 00:20:07;;;;;;;;;;;15.30;99.90;15.60;99597.00;;;;346124;28;82555;-86
2022/10/10 00:20:19;;;;;;;;;;;15.40;99.90;15.60;99597.00;;;;346419;28;90185;-87
2022/10/10 00:20:30;;;;;;;;;;;15.30;99.90;15.60;99594.00;;;;347491;28;83392;-86
2022/10/10 00:20:42;;;;;;;;;;;15.40;99.90;15.70;99600.00;;;;345873;28;91344;-87
2022/10/10 00:20:54;;;;;;;;;;;15.30;99.90;15.60;99595.00;;;;348942;27;83375;-87
2022/10/10 00:21:06;;;;;;;;;;;15.40;99.90;15.60;99594.00;;;;347061;28;92091;-87
2022/10/10 00:21:17;;;;;;;;;;;15.40;99.90;15.60;99597.00;;;;346005;28;83478;-87
2022/10/10 00:21:29;;;;;;;;;;;15.40;99.90;15.60;99603.00;;;;342750;28;91522;-87
2022/10/10 00:21:41;;;;;;;;;;;15.30;99.90;15.60;99592.00;;;;348752;27;82564;-86
2022/10/10 00:21:53;;;;;;;;;;;15.40;99.90;15.60;99594.00;;;;345853;28;90025;-87
2022/10/10 00:22:04;;;;;;;;;;;15.40;99.90;15.70;99596.00;;;;347823;27;82429;-85
2022/10/10 00:22:16;;;;;;;;;;;15.40;99.90;15.70;99592.00;;;;345651;28;89020;-87
2022/10/10 00:22:28;;;;;;;;;;;15.40;99.90;15.70;99597.00;;;;344877;28;83373;-87
2022/10/10 00:22:40;;;;;;;;;;;15.30;99.90;15.70;99593.00;;;;344145;28;92584;-87
2022/10/10 00:22:51;;;;;;;;;;;15.30;99.90;15.60;99598.00;;;;343383;28;83343;-86
2022/10/10 00:23:04;;;;;;;;;;;15.40;99.90;15.60;99592.00;;;;344272;28;90817;-87
2022/10/10 00:23:15;;;;;;;;;;;15.40;99.90;15.60;99593.00;;;;345984;28;83543;-87
2022/10/10 00:23:27;;;;;;;;;;;15.30;99.90;15.60;99589.00;;;;346740;28;90577;-87
2022/10/10 00:23:39;;;;;;;;;;;15.30;99.90;15.60;99599.00;;;;348781;27;83627;-87
2022/10/10 00:23:51;;;;;;;;;;;15.30;99.90;15.50;99590.00;;;;348323;27;89166;-86
2022/10/10 00:24:03;;;;;;;;;;;15.30;99.90;15.50;99591.00;;;;347288;28;82612;-87
2022/10/10 00:24:14;;;;;;;;;;;15.30;99.90;15.50;99596.00;;;;348367;27;90163;-87
2022/10/10 00:24:26;;;;;;;;;;;15.30;99.90;15.50;99594.00;;;;347488;28;82604;-86
2022/10/10 00:24:38;;;;;;;;;;;15.30;99.90;15.50;99580.00;;;;345354;28;90529;-87
2022/10/10 00:24:49;;;;;;;;;;;15.30;99.90;15.50;99592.00;;;;348808;27;83536;-87
2022/10/10 00:25:01;;;;;;;;;;;15.30;99.90;15.50;99595.00;;;;346976;27;91897;-86
2022/10/10 00:25:13;;;;;;;;;;;15.30;99.90;15.60;99592.00;;;;347561;28;82485;-87
2022/10/10 00:25:24;;;;;;;;;;;15.30;99.90;15.60;99598.00;;;;348300;27;92179;-87
2022/10/10 00:25:36;;;;;;;;;;;15.30;99.90;15.60;99595.00;;;;346313;28;83413;-86
2022/10/10 00:25:48;;;;;;;;;;;15.30;99.90;15.60;99591.00;;;;347402;28;88912;-87
2022/10/10 00:26:01;;;;;;;;;;;15.30;99.90;15.70;99598.00;;;;346300;28;83387;-86
2022/10/10 00:26:19;;;;;;;;;;;15.30;99.90;15.60;99595.00;;;;348539;27;90064;-87
2022/10/10 00:26:31;;;;;;;;;;;15.30;99.90;15.60;99592.00;;;;347722;28;83435;-87
2022/10/10 00:26:42;;;;;;;;;;;15.30;99.90;15.60;99592.00;;;;348599;27;91459;-87
2022/10/10 00:26:54;;;;;;;;;;;15.30;99.90;15.60;99588.00;;;;349081;27;83572;-87
2022/10/10 00:27:06;;;;;;;;;;;15.30;99.90;15.50;99592.00;;;;345735;28;91320;-86
2022/10/10 00:27:17;;;;;;;;;;;15.20;99.90;15.60;99574.00;;;;346347;28;82524;-87
2022/10/10 00:27:29;;;;;;;;;;;15.30;99.90;15.50;99584.00;;;;347156;28;88634;-87
2022/10/10 00:27:41;;;;;;;;;;;15.30;99.90;15.50;99586.00;;;;347858;28;82546;-87
2022/10/10 00:27:53;;;;;;;;;;;15.30;99.90;15.50;99588.00;;;;347527;28;87668;-87
2022/10/10 00:28:05;;;;;;;;;;;15.30;99.90;15.50;99588.00;;;;347942;28;83569;-87
2022/10/10 00:28:17;;;;;;;;;;;15.20;99.90;15.50;99586.00;;;;347502;28;90516;-87
2022/10/10 00:28:28;;;;;;;;;;;15.30;99.90;15.50;99594.00;;;;347914;28;83515;-87
2022/10/10 00:28:40;;;;;;;;;;;15.20;99.90;15.50;99589.00;;;;348928;27;90602;-87
2022/10/10 00:28:52;;;;;;;;;;;15.20;99.90;15.50;99594.00;;;;346468;28;84541;-86
2022/10/10 00:29:04;;;;;;;;;;;15.20;99.90;15.50;99595.00;;;;346108;28;90245;-87
2022/10/10 00:29:16;;;;;;;;;;;15.20;99.90;15.50;99591.00;;;;343656;28;82561;-87
2022/10/10 00:29:27;;;;;;;;;;;15.20;99.90;15.50;99588.00;;;;344384;28;92362;-87
2022/10/10 00:29:39;;;;;;;;;;;15.20;99.90;15.50;99591.00;;;;344562;28;84034;-87
2022/10/10 00:29:51;;;;;;;;;;;15.20;99.90;15.50;99588.00;;;;344371;28;88751;-87
2022/10/10 00:30:04;;;;;;;;;;;15.20;99.90;15.50;99586.00;;;;345960;28;83557;-87
2022/10/10 00:30:15;;;;;;;;;;;15.20;99.90;15.40;99590.00;;;;345697;28;92000;-87
2022/10/10 00:30:27;;;;;;;;;;;15.20;99.90;15.50;99594.00;;;;346108;28;82552;-86
2022/10/10 00:30:39;;;;;;;;;;;15.20;99.90;15.40;99590.00;;;;345663;28;90974;-86
2022/10/10 00:30:51;;;;;;;;;;;15.20;99.90;15.40;99597.00;;;;344662;28;83251;-86
2022/10/10 00:31:06;;;;;;;;;;;15.20;99.90;15.50;99593.00;;;;345608;28;90310;-86
2022/10/10 00:31:17;;;;;;;;;;;15.10;99.90;15.60;99597.00;;;;345853;28;83480;-86
2022/10/10 00:31:29;;;;;;;;;;;15.20;99.90;15.50;99591.00;;;;344241;28;92535;-87
2022/10/10 00:31:41;;;;;;;;;;;15.20;99.90;15.40;99593.00;;;;347392;28;83541;-86
2022/10/10 00:31:53;;;;;;;;;;;15.20;99.90;15.40;99587.00;;;;345593;28;91014;-86
2022/10/10 00:32:04;;;;;;;;;;;15.20;99.90;15.40;99592.00;;;;347312;28;82641;-86
2022/10/10 00:32:16;;;;;;;;;;;15.20;99.90;15.40;99593.00;;;;344214;28;88719;-86
2022/10/10 00:32:28;;;;;;;;;;;15.20;99.90;15.50;99591.00;;;;348916;27;83333;-86
2022/10/10 00:32:39;;;;;;;;;;;15.20;99.90;15.60;99597.00;;;;345212;28;90586;-86
2022/10/10 00:32:51;;;;;;;;;;;15.20;99.90;15.70;99590.00;;;;343391;28;83540;-86
2022/10/10 00:33:03;;;;;;;;;;;15.20;99.90;15.80;99590.00;;;;349496;27;88091;-86
2022/10/10 00:33:15;;;;;;;;;;;15.20;99.90;15.70;99593.00;;;;347274;28;82532;-86
2022/10/10 00:33:27;;;;;;;;;;;15.20;99.90;15.50;99587.00;;;;348181;27;90854;-86
2022/10/10 00:33:38;;;;;;;;;;;15.30;99.90;15.50;99595.00;;;;350180;27;82555;-87
2022/10/10 00:33:50;;;;;;;;;;;15.20;99.90;15.50;99586.00;;;;348435;27;89219;-86
2022/10/10 00:34:03;;;;;;;;;;;15.20;99.90;15.50;99586.00;;;;345844;28;83453;-87
2022/10/10 00:34:15;;;;;;;;;;;15.20;99.90;15.50;99596.00;;;;346970;28;91586;-86
2022/10/10 00:34:26;;;;;;;;;;;15.20;99.90;15.50;99585.00;;;;348877;27;83451;-86
2022/10/10 00:34:38;;;;;;;;;;;15.20;99.90;15.50;99589.00;;;;349811;27;88750;-86
2022/10/10 00:34:50;;;;;;;;;;;15.20;99.90;15.60;99593.00;;;;346091;28;83561;-86
2022/10/10 00:35:02;;;;;;;;;;;15.20;99.90;15.60;99594.00;;;;346898;28;92303;-86
2022/10/10 00:35:14;;;;;;;;;;;15.20;99.90;15.50;99591.00;;;;345858;28;83577;-86
2022/10/10 00:35:26;;;;;;;;;;;15.20;99.90;15.50;99589.00;;;;345504;28;91075;-86
2022/10/10 00:35:38;;;;;;;;;;;15.20;99.90;15.50;99590.00;;;;348768;27;83462;-86
2022/10/10 00:35:50;;;;;;;;;;;15.20;99.90;15.50;99589.00;;;;345511;28;88051;-86
2022/10/10 00:36:01;;;;;;;;;;;15.20;99.90;15.50;99599.00;;;;346071;28;83491;-86
2022/10/10 00:36:14;;;;;;;;;;;15.20;99.90;15.50;99593.00;;;;347163;28;90642;-86
2022/10/10 00:36:25;;;;;;;;;;;15.20;99.90;15.50;99585.00;;;;347799;28;83246;-86
2022/10/10 00:36:37;;;;;;;;;;;15.20;99.90;15.50;99594.00;;;;347318;28;90624;-86
2022/10/10 00:36:49;;;;;;;;;;;15.20;99.90;15.50;99583.00;;;;347547;28;83606;-87
2022/10/10 00:37:00;;;;;;;;;;;15.20;99.90;15.50;99591.00;;;;346959;28;92024;-86
2022/10/10 00:37:12;;;;;;;;;;;15.20;99.90;15.50;99587.00;;;;348966;27;82550;-87
2022/10/10 00:37:24;;;;;;;;;;;15.20;99.90;15.50;99586.00;;;;344101;28;93498;-86
2022/10/10 00:37:36;;;;;;;;;;;15.20;99.90;15.50;99591.00;;;;348891;27;83415;-86
2022/10/10 00:37:47;;;;;;;;;;;15.20;99.90;15.50;99588.00;;;;346968;28;91594;-87
2022/10/10 00:37:59;;;;;;;;;;;15.20;99.90;15.50;99595.00;;;;347508;28;82416;-86
2022/10/10 00:38:12;;;;;;;;;;;15.20;99.90;15.60;99590.00;;;;348343;27;91386;-85
2022/10/10 00:38:24;;;;;;;;;;;15.20;99.90;15.60;99588.00;;;;346001;28;83395;-86
2022/10/10 00:38:35;;;;;;;;;;;15.20;99.90;15.50;99585.00;;;;346823;28;92010;-86
2022/10/10 00:38:47;;;;;;;;;;;15.20;99.90;15.50;99590.00;;;;347325;27;83448;-86
2022/10/10 00:39:00;;;;;;;;;;;15.20;99.90;15.50;99588.00;;;;347020;28;88940;-86
2022/10/10 00:39:12;;;;;;;;;;;15.20;99.90;15.40;99589.00;;;;347452;28;83425;-86
2022/10/10 00:39:23;;;;;;;;;;;15.20;99.90;15.40;99587.00;;;;346747;28;92318;-86
2022/10/10 00:39:35;;;;;;;;;;;15.20;99.90;15.50;99586.00;;;;347560;28;83364;-86
2022/10/10 00:39:47;;;;;;;;;;;15.20;99.90;15.60;99597.00;;;;347039;28;91010;-86
2022/10/10 00:39:58;;;;;;;;;;;15.20;99.90;15.60;99593.00;;;;347380;28;83487;-86
2022/10/10 00:40:10;;;;;;;;;;;15.20;99.90;15.60;99597.00;;;;345578;28;91372;-86
2022/10/10 00:40:22;;;;;;;;;;;15.20;99.90;15.70;99594.00;;;;348780;27;83448;-86
2022/10/10 00:40:34;;;;;;;;;;;15.20;99.90;15.70;99599.00;;;;345572;28;92748;-86
2022/10/10 00:40:50;;;;;;;;;;;15.20;99.90;15.60;99590.00;;;;348845;27;82502;-86
2022/10/10 00:41:01;;;;;;;;;;;15.20;99.90;15.60;99582.00;;;;345705;28;90286;-87
2022/10/10 00:41:13;;;;;;;;;;;15.20;99.90;15.60;99596.00;;;;346053;28;83514;-86
2022/10/10 00:41:25;;;;;;;;;;;15.20;99.90;15.50;99581.00;;;;346970;28;91381;-85
2022/10/10 00:41:37;;;;;;;;;;;15.30;99.90;15.50;99587.00;;;;345039;28;82556;-86
2022/10/10 00:41:49;;;;;;;;;;;15.20;99.90;15.50;99586.00;;;;345739;28;87698;-86
2022/10/10 00:42:00;;;;;;;;;;;15.20;99.90;15.50;99588.00;;;;347099;28;84085;-86
2022/10/10 00:42:14;;;;;;;;;;;15.20;99.90;15.40;99586.00;;;;346940;28;89171;-87
2022/10/10 00:42:26;;;;;;;;;;;15.20;99.90;15.40;99591.00;;;;345984;28;83387;-86
2022/10/10 00:42:38;;;;;;;;;;;15.20;99.90;15.50;99591.00;;;;342920;28;88844;-86
2022/10/10 00:42:50;;;;;;;;;;;15.20;99.90;15.50;99594.00;;;;347384;28;83499;-86
2022/10/10 00:43:02;;;;;;;;;;;15.20;99.90;15.60;99590.00;;;;346987;28;89552;-86
2022/10/10 00:43:14;;;;;;;;;;;15.20;99.90;15.70;99591.00;;;;346013;28;83478;-86
2022/10/10 00:43:26;;;;;;;;;;;15.20;99.90;15.60;99597.00;;;;345530;28;91816;-86
2022/10/10 00:43:37;;;;;;;;;;;15.20;99.90;15.60;99576.00;;;;347473;28;83392;-86
2022/10/10 00:44:06;;;;;;;;;;;15.20;99.90;15.50;99593.00;;;;347035;28;89033;-86
2022/10/10 00:44:17;;;;;;;;;;;15.20;99.90;15.60;99586.00;;;;345946;28;83498;-86
2022/10/10 00:44:29;;;;;;;;;;;15.20;99.90;15.50;99590.00;;;;346993;28;91531;-86
2022/10/10 00:44:42;;;;;;;;;;;15.20;99.90;15.60;99584.00;;;;347364;28;82557;-86
2022/10/10 00:45:19;;;;;;;;;;;15.20;99.90;15.50;99594.00;;;;346882;28;91628;-86
2022/10/10 00:45:35;;;;;;;;;;;15.20;99.90;15.40;99587.00;;;;345970;28;83371;-86
2022/10/10 00:45:47;;;;;;;;;;;15.20;99.90;15.50;99589.00;;;;345485;28;91963;-86
2022/10/10 00:45:59;;;;;;;;;;;15.20;99.90;15.40;99591.00;;;;345992;28;82640;-86
2022/10/10 00:46:11;;;;;;;;;;;15.20;99.90;15.50;99587.00;;;;345729;28;91523;-86
2022/10/10 00:46:23;;;;;;;;;;;15.20;99.90;15.60;99583.00;;;;347510;28;83492;-86
2022/10/10 00:46:34;;;;;;;;;;;15.20;99.90;15.50;99590.00;;;;347226;28;91142;-86
2022/10/10 00:46:46;;;;;;;;;;;15.20;99.90;15.50;99597.00;;;;344566;28;83535;-86
2022/10/10 00:46:58;;;;;;;;;;;15.20;99.90;15.50;99594.00;;;;345865;28;89008;-86
2022/10/10 00:47:10;;;;;;;;;;;15.20;99.90;15.50;99589.00;;;;344737;28;82592;-86
2022/10/10 00:47:21;;;;;;;;;;;15.20;99.90;15.30;99586.00;;;;343914;28;91265;-87
2022/10/10 00:47:33;;;;;;;;;;;15.20;99.90;15.30;99591.00;;;;345966;28;83529;-86
2022/10/10 00:47:45;;;;;;;;;;;15.10;99.90;15.30;99586.00;;;;345549;28;91772;-86
2022/10/10 00:48:01;;;;;;;;;;;15.20;99.90;15.30;99589.00;;;;346230;28;82468;-85
2022/10/10 00:48:28;;;;;;;;;;;15.20;99.90;15.20;99597.00;;;;345488;28;92808;-86
2022/10/10 00:48:42;;;;;;;;;;;15.20;99.90;15.20;99591.00;;;;346031;28;83441;-86
2022/10/10 00:48:54;;;;;;;;;;;15.10;99.90;15.30;99591.00;;;;345586;28;91915;-88
2022/10/10 00:49:14;;;;;;;;;;;15.10;99.90;15.20;99588.00;;;;344603;28;83526;-86
2022/10/10 00:49:26;;;;;;;;;;;15.10;99.90;15.20;99592.00;;;;347218;28;87497;-86
2022/10/10 00:49:39;;;;;;;;;;;15.10;99.90;15.20;99586.00;;;;347437;28;83399;-86
2022/10/10 00:49:51;;;;;;;;;;;15.10;99.90;15.30;99596.00;;;;347133;28;89045;-86
2022/10/10 00:50:03;;;;;;;;;;;15.10;99.90;15.30;99589.00;;;;345893;28;82521;-87
2022/10/10 00:50:16;;;;;;;;;;;15.10;99.90;15.30;99594.00;;;;345361;28;89166;-86
2022/10/10 00:50:28;;;;;;;;;;;15.10;99.90;15.30;99583.00;;;;346109;28;83446;-86
2022/10/10 00:50:45;;;;;;;;;;;15.10;99.90;15.30;99588.00;;;;344681;28;92026;-86
2022/10/10 00:51:05;;;;;;;;;;;15.10;99.90;15.20;99586.00;;;;345025;28;83383;-86
2022/10/10 00:51:17;;;;;;;;;;;15.10;99.90;15.30;99590.00;;;;345938;28;91608;-86
2022/10/10 00:51:29;;;;;;;;;;;15.10;99.90;15.30;99587.00;;;;346231;28;83575;-86
2022/10/10 00:51:41;;;;;;;;;;;15.10;99.90;15.30;99584.00;;;;347337;28;89998;-86
2022/10/10 00:51:54;;;;;;;;;;;15.10;99.90;15.40;99590.00;;;;346215;28;82622;-86
2022/10/10 00:52:06;;;;;;;;;;;15.10;99.90;15.30;99591.00;;;;345670;28;90326;-86
2022/10/10 00:52:17;;;;;;;;;;;15.10;99.90;15.30;99583.00;;;;346110;28;83552;-86
2022/10/10 00:52:29;;;;;;;;;;;15.10;99.90;15.30;99588.00;;;;345633;28;91233;-86
2022/10/10 00:52:41;;;;;;;;;;;15.10;99.90;15.30;99588.00;;;;347558;28;82489;-86
2022/10/10 00:52:53;;;;;;;;;;;15.00;99.90;15.30;99585.00;;;;347017;28;90302;-86
2022/10/10 00:53:05;;;;;;;;;;;15.00;99.90;15.30;99592.00;;;;346057;28;83458;-87
2022/10/10 00:53:18;;;;;;;;;;;15.10;99.90;15.30;99587.00;;;;348361;27;91470;-86
2022/10/10 00:53:32;;;;;;;;;;;15.10;99.90;15.30;99587.00;;;;345965;28;83926;-86
2022/10/10 00:53:48;;;;;;;;;;;15.00;99.90;15.30;99594.00;;;;344297;28;88287;-87
2022/10/10 00:54:02;;;;;;;;;;;15.10;99.90;15.50;99587.00;;;;345878;28;83558;-86
2022/10/10 00:54:14;;;;;;;;;;;15.10;99.90;15.60;99586.00;;;;345693;28;87718;-86
2022/10/10 00:54:26;;;;;;;;;;;15.10;99.90;15.50;99590.00;;;;344791;28;82457;-86
2022/10/10 00:54:38;;;;;;;;;;;15.10;99.90;15.50;99591.00;;;;345587;28;92350;-87
2022/10/10 00:54:49;;;;;;;;;;;15.10;99.90;15.40;99587.00;;;;344548;28;83549;-86
2022/10/10 00:55:01;;;;;;;;;;;15.10;99.90;15.40;99593.00;;;;345662;28;88882;-86
2022/10/10 00:55:13;;;;;;;;;;;15.10;99.90;15.40;99589.00;;;;343447;28;83306;-87
2022/10/10 00:55:24;;;;;;;;;;;15.10;99.90;15.40;99595.00;;;;344190;28;91306;-87
2022/10/10 00:55:36;;;;;;;;;;;15.10;99.90;15.40;99586.00;;;;346162;28;83538;-87
2022/10/10 00:55:48;;;;;;;;;;;15.10;99.90;15.50;99590.00;;;;347097;28;88991;-86
2022/10/10 00:55:59;;;;;;;;;;;15.10;99.90;15.40;99581.00;;;;345907;28;83722;-86
2022/10/10 00:56:11;;;;;;;;;;;15.10;99.90;15.30;99590.00;;;;346815;27;90381;-86
2022/10/10 00:56:27;;;;;;;;;;;15.10;99.90;15.30;99585.00;;;;346165;28;82553;-87
2022/10/10 00:56:44;;;;;;;;;;;15.10;99.90;15.30;99593.00;;;;344380;28;88727;-87
2022/10/10 00:56:57;;;;;;;;;;;15.10;99.90;15.30;99595.00;;;;344765;28;83508;-86
2022/10/10 00:57:10;;;;;;;;;;;15.10;99.90;15.30;99590.00;;;;348170;27;91131;-87
2022/10/10 00:57:22;;;;;;;;;;;15.10;99.90;15.30;99590.00;;;;347452;28;83491;-87
2022/10/10 00:57:34;;;;;;;;;;;15.10;99.90;15.40;99582.00;;;;346995;28;88848;-86
2022/10/10 00:57:45;;;;;;;;;;;15.10;99.90;15.40;99589.00;;;;344674;28;83382;-86
2022/10/10 00:57:57;;;;;;;;;;;15.10;99.90;15.40;99587.00;;;;345685;28;91899;-87
2022/10/10 00:58:09;;;;;;;;;;;15.10;99.90;15.40;99591.00;;;;347376;28;83606;-87
2022/10/10 00:58:20;;;;;;;;;;;15.10;99.90;15.30;99589.00;;;;345755;28;88760;-87
2022/10/10 00:58:32;;;;;;;;;;;15.10;99.90;15.30;99594.00;;;;346172;28;82513;-87
2022/10/10 00:58:46;;;;;;;;;;;15.10;99.90;15.30;99593.00;;;;348165;27;91413;-86
2022/10/10 00:59:01;;;;;;;;;;;15.10;99.90;15.30;99592.00;;;;347270;28;83674;-86
2022/10/10 00:59:12;;;;;;;;;;;15.10;99.90;15.30;99599.00;;;;348319;27;92486;-86
2022/10/10 00:59:25;;;;;;;;;;;15.10;99.90;15.30;99593.00;;;;346067;28;83409;-87
2022/10/10 00:59:37;;;;;;;;;;;15.10;99.90;15.40;99590.00;;;;344032;28;91744;-87
2022/10/10 00:59:48;;;;;;;;;;;15.10;99.90;15.30;99590.00;;;;346053;28;83458;-86
2022/10/10 01:00:00;;;;;;;;;;;15.10;99.90;15.30;99599.00;;;;347006;28;91824;-85
2022/10/10 01:00:12;;;;;;;;;;;15.10;99.90;15.20;99592.00;;;;347112;28;82620;-87
2022/10/10 01:00:24;;;;;;;;;;;15.10;99.90;15.20;99591.00;;;;344331;28;88103;-86
2022/10/10 01:00:36;;;;;;;;;;;15.00;99.90;15.30;99595.00;;;;346225;28;82486;-86
2022/10/10 01:00:47;;;;;;;;;;;15.00;99.90;15.40;99593.00;;;;347059;27;89156;-86
2022/10/10 01:00:59;;;;;;;;;;;15.00;99.90;15.30;99588.00;;;;348962;27;82306;-87